Time;durP1;ratioP1;P1;durP2;ratioP2;P2;SDS_P1;SDS_P2;PMS_P1;PMS_P2;Temp;Humidity;BMP_temperature;BMP_pressure;BME280_temperature;BME280_humidity;BME280_pressure;Samples;Min_cycle;Max_cycle;Signal;HPM_P1;HPM_P2
2022/11/05 00:09:31;;;;;;;0.20;0.20;;;;;;;;;;7393441;19;20198;-93
2022/11/05 00:17:31;;;;;;;0.30;0.30;;;;;;;;;;7394604;19;20126;-93
2022/11/05 00:19:56;;;;;;;0.40;0.40;;;;;;;;;;7393160;19;20161;-91
2022/11/05 00:25:18;;;;;;;0.30;0.30;;;;;;;;;;7394372;19;20691;-90
2022/11/05 00:27:45;;;;;;;0.30;0.30;;;;;;;;;;7392025;19;20891;-90
2022/11/05 00:30:12;;;;;;;0.30;0.30;;;;;;;;;;7391995;19;20656;-92
2022/11/05 00:32:38;;;;;;;0.20;0.20;;;;;;;;;;7392284;19;20152;-91
2022/11/05 00:35:08;;;;;;;0.20;0.20;;;;;;;;;;7393414;19;20117;-91
2022/11/05 00:37:34;;;;;;;0.30;0.30;;;;;;;;;;7393965;19;20133;-93
2022/11/05 00:39:59;;;;;;;0.30;0.30;;;;;;;;;;7391485;19;20128;-93
2022/11/05 00:45:09;;;;;;;0.20;0.20;;;;;;;;;;7394080;19;20116;-92
2022/11/05 00:50:20;;;;;;;0.33;0.33;;;;;;;;;;7392464;19;20145;-91
2022/11/05 00:52:56;;;;;;;0.30;0.30;;;;;;;;;;7393649;19;20125;-91
2022/11/05 00:55:32;;;;;;;0.30;0.30;;;;;;;;;;7393121;19;20129;-92
2022/11/05 00:57:58;;;;;;;0.20;0.20;;;;;;;;;;7393608;19;20120;-92
2022/11/05 01:00:25;;;;;;;0.30;0.30;;;;;;;;;;7391753;19;20153;-92
2022/11/05 01:02:50;;;;;;;0.20;0.20;;;;;;;;;;7392006;19;20594;-92
2022/11/05 01:05:16;;;;;;;0.40;0.40;;;;;;;;;;7393278;19;20102;-93
2022/11/05 01:07:41;;;;;;;0.20;0.20;;;;;;;;;;7390826;19;20205;-94
2022/11/05 01:10:07;;;;;;;0.30;0.30;;;;;;;;;;7395154;19;20152;-94
2022/11/05 01:12:32;;;;;;;0.30;0.30;;;;;;;;;;7396938;19;20117;-93
2022/11/05 01:14:58;;;;;;;0.30;0.30;;;;;;;;;;7396702;19;20133;-92
2022/11/05 01:17:23;;;;;;;0.30;0.30;;;;;;;;;;7392652;19;20150;-91
2022/11/05 01:19:48;;;;;;;0.77;0.60;;;;;;;;;;7390605;19;20615;-92
2022/11/05 01:22:14;;;;;;;0.20;0.20;;;;;;;;;;7390496;19;20170;-92
2022/11/05 01:24:40;;;;;;;0.30;0.30;;;;;;;;;;7391750;19;20577;-91
2022/11/05 01:27:05;;;;;;;0.30;0.30;;;;;;;;;;7391323;19;20117;-93
2022/11/05 01:29:30;;;;;;;0.20;0.20;;;;;;;;;;7390762;19;20157;-94
2022/11/05 01:31:55;;;;;;;0.47;0.47;;;;;;;;;;7394964;19;20125;-94
2022/11/05 01:34:21;;;;;;;0.30;0.30;;;;;;;;;;7402920;19;20124;-94
2022/11/05 01:36:46;;;;;;;0.30;0.30;;;;;;;;;;7403733;19;20133;-94
2022/11/05 01:39:11;;;;;;;0.30;0.30;;;;;;;;;;7397313;19;20320;-92
2022/11/05 01:41:37;;;;;;;0.57;0.40;;;;;;;;;;7390729;19;20152;-92
2022/11/05 01:44:02;;;;;;;0.30;0.30;;;;;;;;;;7390452;19;20121;-92
2022/11/05 01:46:36;;;;;;;0.30;0.30;;;;;;;;;;7390713;19;20121;-90
2022/11/05 01:49:27;;;;;;;0.30;0.30;;;;;;;;;;7391740;19;20148;-90
2022/11/05 01:51:54;;;;;;;0.30;0.30;;;;;;;;;;7389894;19;20645;-91
2022/11/05 01:54:22;;;;;;;0.40;0.40;;;;;;;;;;7391200;19;20147;-90
2022/11/05 01:57:03;;;;;;;0.30;0.30;;;;;;;;;;7391219;19;20117;-92
2022/11/05 01:59:34;;;;;;;0.20;0.20;;;;;;;;;;7389238;19;20155;-90
2022/11/05 02:02:01;;;;;;;0.20;0.20;;;;;;;;;;7389762;19;20133;-89
2022/11/05 02:04:38;;;;;;;0.40;0.40;;;;;;;;;;7390477;19;20667;-90
2022/11/05 02:07:04;;;;;;;0.20;0.20;;;;;;;;;;7390285;19;20125;-92
2022/11/05 02:09:52;;;;;;;0.30;0.30;;;;;;;;;;7389404;19;20161;-91
2022/11/05 02:12:18;;;;;;;0.27;0.27;;;;;;;;;;7391283;19;20129;-92
2022/11/05 02:14:43;;;;;;;0.20;0.20;;;;;;;;;;7389458;19;20141;-92
2022/11/05 02:17:27;;;;;;;0.30;0.30;;;;;;;;;;7390674;19;20871;-91
2022/11/05 02:20:15;;;;;;;0.60;0.60;;;;;;;;;;7388919;19;20164;-92
2022/11/05 02:23:14;;;;;;;0.20;0.20;;;;;;;;;;7390071;19;20101;-93
2022/11/05 02:25:58;;;;;;;0.30;0.30;;;;;;;;;;7391702;19;20117;-93
2022/11/05 02:28:49;;;;;;;0.30;0.30;;;;;;;;;;7388645;19;20140;-92
2022/11/05 02:31:20;;;;;;;0.30;0.30;;;;;;;;;;7388639;19;20141;-91
2022/11/05 02:33:55;;;;;;;0.30;0.30;;;;;;;;;;7389772;19;20461;-91
2022/11/05 02:36:39;;;;;;;0.40;0.40;;;;;;;;;;7389074;19;20100;-92
2022/11/05 02:39:26;;;;;;;0.30;0.30;;;;;;;;;;7388607;19;20161;-91
2022/11/05 02:41:51;;;;;;;0.27;0.27;;;;;;;;;;7389251;19;20133;-94
2022/11/05 02:44:25;;;;;;;0.20;0.20;;;;;;;;;;7389848;19;20117;-92
2022/11/05 02:46:51;;;;;;;0.20;0.20;;;;;;;;;;7388208;19;20114;-90
2022/11/05 02:49:34;;;;;;;0.20;0.20;;;;;;;;;;7388034;19;20181;-89
2022/11/05 02:52:04;;;;;;;0.30;0.30;;;;;;;;;;7387795;19;20109;-92
2022/11/05 02:54:41;;;;;;;0.27;0.27;;;;;;;;;;7389287;19;20148;-92
2022/11/05 02:57:06;;;;;;;0.40;0.40;;;;;;;;;;7392179;19;20578;-91
2022/11/05 02:59:32;;;;;;;0.30;0.30;;;;;;;;;;7391285;19;20245;-90
2022/11/05 03:01:57;;;;;;;0.20;0.20;;;;;;;;;;7391237;19;20133;-90
2022/11/05 03:04:24;;;;;;;0.30;0.30;;;;;;;;;;7388778;19;20130;-88
2022/11/05 03:07:08;;;;;;;0.30;0.30;;;;;;;;;;7389345;19;20156;-88
2022/11/05 03:09:42;;;;;;;1.60;0.40;;;;;;;;;;7388091;19;20153;-89
2022/11/05 03:12:32;;;;;;;0.30;0.30;;;;;;;;;;7389662;19;20129;-89
2022/11/05 03:15:10;;;;;;;0.40;0.40;;;;;;;;;;7388436;19;20148;-90
2022/11/05 03:17:40;;;;;;;0.30;0.30;;;;;;;;;;7389196;19;20133;-90
2022/11/05 03:20:20;;;;;;;0.30;0.30;;;;;;;;;;7386270;19;20164;-89
2022/11/05 03:23:07;;;;;;;0.20;0.20;;;;;;;;;;7388447;19;20113;-90
2022/11/05 03:25:36;;;;;;;0.30;0.30;;;;;;;;;;7388784;19;20117;-91
2022/11/05 03:28:04;;;;;;;0.30;0.30;;;;;;;;;;7386579;19;20141;-90
2022/11/05 03:30:31;;;;;;;0.23;0.23;;;;;;;;;;7385609;19;20165;-90
2022/11/05 03:32:59;;;;;;;0.30;0.30;;;;;;;;;;7387785;19;20168;-91
2022/11/05 03:35:29;;;;;;;0.20;0.20;;;;;;;;;;7387513;19;20148;-91
2022/11/05 03:37:58;;;;;;;0.30;0.30;;;;;;;;;;7387864;19;20118;-90
2022/11/05 03:40:24;;;;;;;0.30;0.30;;;;;;;;;;7385920;19;20160;-93
2022/11/05 03:42:53;;;;;;;0.30;0.30;;;;;;;;;;7386807;19;20447;-92
2022/11/05 03:45:25;;;;;;;0.40;0.40;;;;;;;;;;7391687;19;20127;-91
2022/11/05 03:47:53;;;;;;;0.20;0.20;;;;;;;;;;7393450;19;20500;-90
2022/11/05 03:50:48;;;;;;;0.30;0.30;;;;;;;;;;7393073;19;20645;-91
2022/11/05 03:53:36;;;;;;;0.27;0.27;;;;;;;;;;7394176;19;20129;-91
2022/11/05 03:56:22;;;;;;;0.30;0.30;;;;;;;;;;7394820;19;20149;-90
2022/11/05 03:58:47;;;;;;;0.30;0.30;;;;;;;;;;7394069;19;20190;-92
2022/11/05 04:01:13;;;;;;;0.27;0.27;;;;;;;;;;7394433;19;20517;-92
2022/11/05 04:03:38;;;;;;;0.30;0.30;;;;;;;;;;7394298;19;20121;-93
2022/11/05 04:14:17;;;;;;;0.30;0.30;;;;;;;;;;7394402;19;20158;-92
2022/11/05 04:24:55;;;;;;;0.37;0.37;;;;;;;;;;7394664;19;20116;-91
2022/11/05 04:27:20;;;;;;;0.30;0.30;;;;;;;;;;7392184;19;20510;-93
2022/11/05 04:32:29;;;;;;;0.60;0.60;;;;;;;;;;7392355;19;20148;-91
2022/11/05 04:34:55;;;;;;;0.30;0.30;;;;;;;;;;7393128;19;20641;-90
2022/11/05 04:37:20;;;;;;;0.30;0.30;;;;;;;;;;7392928;19;20133;-92
2022/11/05 04:39:46;;;;;;;0.20;0.20;;;;;;;;;;7391509;19;20160;-92
2022/11/05 04:42:12;;;;;;;0.30;0.30;;;;;;;;;;7390945;19;20148;-92
2022/11/05 04:44:37;;;;;;;0.20;0.20;;;;;;;;;;7392780;19;20141;-91
2022/11/05 04:47:02;;;;;;;0.30;0.30;;;;;;;;;;7391726;19;20117;-93
2022/11/05 04:49:27;;;;;;;0.20;0.20;;;;;;;;;;7391525;19;20153;-92
2022/11/05 04:51:53;;;;;;;0.30;0.30;;;;;;;;;;7391796;19;20117;-93
2022/11/05 04:54:18;;;;;;;0.20;0.20;;;;;;;;;;7392548;19;20126;-92
2022/11/05 04:56:43;;;;;;;0.20;0.20;;;;;;;;;;7389662;19;20109;-92
2022/11/05 04:59:09;;;;;;;0.20;0.20;;;;;;;;;;7391096;19;20659;-91
2022/11/05 05:01:34;;;;;;;0.37;0.37;;;;;;;;;;7391339;19;20129;-93
2022/11/05 05:04:00;;;;;;;0.40;0.40;;;;;;;;;;7392091;19;20148;-92
2022/11/05 05:06:25;;;;;;;0.30;0.30;;;;;;;;;;7399952;19;20129;-92
2022/11/05 05:08:51;;;;;;;0.30;0.30;;;;;;;;;;7407094;19;20500;-93
2022/11/05 05:11:18;;;;;;;0.30;0.30;;;;;;;;;;7406503;19;20156;-93
2022/11/05 05:13:43;;;;;;;0.30;0.30;;;;;;;;;;7405391;19;20113;-93
2022/11/05 05:16:15;;;;;;;0.20;0.20;;;;;;;;;;7391313;19;20125;-92
2022/11/05 05:18:41;;;;;;;0.30;0.30;;;;;;;;;;7391242;19;20177;-92
2022/11/05 05:23:51;;;;;;;0.53;0.53;;;;;;;;;;7391388;19;20270;-91
2022/11/05 05:26:17;;;;;;;0.30;0.30;;;;;;;;;;7390910;19;20605;-92
2022/11/05 05:28:42;;;;;;;0.33;0.33;;;;;;;;;;7391137;19;20468;-92
2022/11/05 05:31:08;;;;;;;0.30;0.30;;;;;;;;;;7389942;19;20602;-92
2022/11/05 05:33:33;;;;;;;0.30;0.30;;;;;;;;;;7391857;19;20586;-91
2022/11/05 05:35:59;;;;;;;0.30;0.30;;;;;;;;;;7390443;19;20129;-90
2022/11/05 05:38:24;;;;;;;0.20;0.20;;;;;;;;;;7392240;19;20234;-92
2022/11/05 05:40:50;;;;;;;0.30;0.30;;;;;;;;;;7389800;19;20132;-91
2022/11/05 05:43:15;;;;;;;0.30;0.30;;;;;;;;;;7390305;19;20148;-91
2022/11/05 05:45:41;;;;;;;0.30;0.30;;;;;;;;;;7390338;19;20117;-91
2022/11/05 05:48:07;;;;;;;0.20;0.20;;;;;;;;;;7389472;19;20149;-91
2022/11/05 05:50:32;;;;;;;0.30;0.30;;;;;;;;;;7388384;19;20509;-90
2022/11/05 05:52:57;;;;;;;0.20;0.20;;;;;;;;;;7390720;19;20128;-91
2022/11/05 05:55:23;;;;;;;0.20;0.20;;;;;;;;;;7393134;19;20166;-91
2022/11/05 05:57:48;;;;;;;0.63;0.50;;;;;;;;;;7394624;19;20133;-91
2022/11/05 06:00:13;;;;;;;0.20;0.20;;;;;;;;;;7384990;19;20228;-92
2022/11/05 06:02:39;;;;;;;0.37;0.37;;;;;;;;;;7386675;19;20130;-91
2022/11/05 06:05:04;;;;;;;0.30;0.30;;;;;;;;;;7386964;19;20133;-92
2022/11/05 06:07:29;;;;;;;0.30;0.30;;;;;;;;;;7391895;19;20129;-92
2022/11/05 06:09:55;;;;;;;0.20;0.20;;;;;;;;;;7387315;19;20529;-92
2022/11/05 06:12:20;;;;;;;0.30;0.30;;;;;;;;;;7388776;19;20129;-91
2022/11/05 06:14:45;;;;;;;0.30;0.30;;;;;;;;;;7389554;19;20128;-92
2022/11/05 06:17:11;;;;;;;1.07;0.63;;;;;;;;;;7389921;19;20144;-91
2022/11/05 06:19:36;;;;;;;0.43;0.43;;;;;;;;;;7388330;19;20152;-92
2022/11/05 06:22:01;;;;;;;0.20;0.20;;;;;;;;;;7388736;19;20154;-92
2022/11/05 06:24:26;;;;;;;0.20;0.20;;;;;;;;;;7389691;19;20121;-93
2022/11/05 06:26:52;;;;;;;2.33;1.07;;;;;;;;;;7402289;19;20167;-92
2022/11/05 06:29:17;;;;;;;0.20;0.20;;;;;;;;;;7401675;19;20161;-92
2022/11/05 06:31:42;;;;;;;0.30;0.30;;;;;;;;;;7399755;19;20136;-92
2022/11/05 06:34:08;;;;;;;0.30;0.30;;;;;;;;;;7389296;19;20145;-91
2022/11/05 06:36:33;;;;;;;0.20;0.20;;;;;;;;;;7390331;19;20597;-91
2022/11/05 06:39:06;;;;;;;0.20;0.20;;;;;;;;;;7387158;19;20224;-92
2022/11/05 06:41:31;;;;;;;0.30;0.30;;;;;;;;;;7387502;19;20581;-91
2022/11/05 06:43:57;;;;;;;0.20;0.20;;;;;;;;;;7391582;19;20121;-91
2022/11/05 06:46:22;;;;;;;0.20;0.20;;;;;;;;;;7390751;19;20474;-88
2022/11/05 06:48:48;;;;;;;0.40;0.40;;;;;;;;;;7391012;19;20163;-89
2022/11/05 06:51:13;;;;;;;0.27;0.27;;;;;;;;;;7391419;19;20126;-89
2022/11/05 06:53:38;;;;;;;0.30;0.30;;;;;;;;;;7390402;19;20536;-91
2022/11/05 06:56:05;;;;;;;0.30;0.30;;;;;;;;;;7389901;19;20133;-88
2022/11/05 06:58:30;;;;;;;0.27;0.27;;;;;;;;;;7390519;19;20196;-90
2022/11/05 07:01:01;;;;;;;0.30;0.30;;;;;;;;;;7390697;19;20121;-89
2022/11/05 07:03:27;;;;;;;0.30;0.30;;;;;;;;;;7390726;19;20129;-88
2022/11/05 07:05:52;;;;;;;0.20;0.20;;;;;;;;;;7391767;19;20133;-87
2022/11/05 07:08:26;;;;;;;0.67;0.60;;;;;;;;;;7389167;19;20540;-89
2022/11/05 07:14:34;;;;;;;0.20;0.20;;;;;;;;;;7389425;19;20138;-91
2022/11/05 07:17:06;;;;;;;0.30;0.30;;;;;;;;;;7392652;19;20121;-91
2022/11/05 07:19:31;;;;;;;0.40;0.40;;;;;;;;;;7384035;19;20248;-71
2022/11/05 07:21:56;;;;;;;0.20;0.20;;;;;;;;;;7389830;19;20126;-71
2022/11/05 07:24:22;;;;;;;0.30;0.30;;;;;;;;;;7390320;19;20173;-71
2022/11/05 07:26:47;;;;;;;0.30;0.30;;;;;;;;;;7386035;19;20491;-71
2022/11/05 07:29:13;;;;;;;0.30;0.30;;;;;;;;;;7375133;19;20566;-70
2022/11/05 07:31:38;;;;;;;0.30;0.30;;;;;;;;;;7378341;19;20124;-71
2022/11/05 07:34:03;;;;;;;0.30;0.30;;;;;;;;;;7377718;19;20144;-71
2022/11/05 07:36:28;;;;;;;0.30;0.30;;;;;;;;;;7379685;19;20607;-71
2022/11/05 07:38:54;;;;;;;0.40;0.40;;;;;;;;;;7381552;19;20117;-71
2022/11/05 07:41:19;;;;;;;0.30;0.30;;;;;;;;;;7382150;19;20114;-71
2022/11/05 07:43:44;;;;;;;0.30;0.30;;;;;;;;;;7385542;19;20599;-71
2022/11/05 07:46:10;;;;;;;0.30;0.30;;;;;;;;;;7374991;19;20418;-70
2022/11/05 07:48:36;;;;;;;0.30;0.30;;;;;;;;;;7387361;19;20122;-71
2022/11/05 07:51:01;;;;;;;0.20;0.20;;;;;;;;;;7389005;19;20140;-71
2022/11/05 07:53:26;;;;;;;0.30;0.30;;;;;;;;;;7391175;19;20105;-71
2022/11/05 07:55:52;;;;;;;0.30;0.30;;;;;;;;;;7389667;19;20125;-70
2022/11/05 07:58:18;;;;;;;0.30;0.30;;;;;;;;;;7393222;19;20105;-70
2022/11/05 08:00:43;;;;;;;0.30;0.30;;;;;;;;;;7389888;19;20622;-71
2022/11/05 08:03:15;;;;;;;0.30;0.30;;;;;;;;;;7390926;19;20105;-71
2022/11/05 08:05:44;;;;;;;0.50;0.50;;;;;;;;;;7389812;19;20128;-71
2022/11/05 08:08:12;;;;;;;0.30;0.30;;;;;;;;;;7388437;19;20623;-71
2022/11/05 08:10:37;;;;;;;0.30;0.30;;;;;;;;;;7389237;19;20152;-72
2022/11/05 08:13:03;;;;;;;0.30;0.30;;;;;;;;;;7391215;19;20101;-71
2022/11/05 08:15:29;;;;;;;0.20;0.20;;;;;;;;;;7389856;19;20146;-71
2022/11/05 08:18:14;;;;;;;0.20;0.20;;;;;;;;;;7390610;19;20093;-72
2022/11/05 08:20:42;;;;;;;0.20;0.20;;;;;;;;;;7389283;19;20133;-71
2022/11/05 08:23:07;;;;;;;0.30;0.30;;;;;;;;;;7390289;19;20587;-71
2022/11/05 08:25:32;;;;;;;0.30;0.30;;;;;;;;;;7391190;19;20113;-71
2022/11/05 08:28:00;;;;;;;0.20;0.20;;;;;;;;;;7387889;19;20113;-72
2022/11/05 08:30:27;;;;;;;0.20;0.20;;;;;;;;;;7388110;19;20109;-71
2022/11/05 08:32:57;;;;;;;0.30;0.30;;;;;;;;;;7390283;19;20116;-71
2022/11/05 08:35:22;;;;;;;0.30;0.30;;;;;;;;;;7389287;19;20164;-72
2022/11/05 08:37:47;;;;;;;0.30;0.30;;;;;;;;;;7391348;19;20101;-71
2022/11/05 08:40:13;;;;;;;0.30;0.30;;;;;;;;;;7389937;19;20472;-72
2022/11/05 08:42:38;;;;;;;0.30;0.30;;;;;;;;;;7390907;19;20101;-71
2022/11/05 08:45:03;;;;;;;0.30;0.30;;;;;;;;;;7389927;19;20616;-71
2022/11/05 08:47:29;;;;;;;0.30;0.30;;;;;;;;;;7386935;19;20647;-71
2022/11/05 08:49:54;;;;;;;0.27;0.27;;;;;;;;;;7389114;19;20126;-72
2022/11/05 08:52:19;;;;;;;0.20;0.20;;;;;;;;;;7390047;19;20105;-71
2022/11/05 08:54:45;;;;;;;0.20;0.20;;;;;;;;;;7390990;19;20109;-71
2022/11/05 08:57:10;;;;;;;1.07;0.97;;;;;;;;;;7390591;19;20195;-71
2022/11/05 08:59:35;;;;;;;0.20;0.20;;;;;;;;;;7390637;19;20101;-71
2022/11/05 09:02:00;;;;;;;0.30;0.30;;;;;;;;;;7387399;19;20120;-71
2022/11/05 09:04:26;;;;;;;0.20;0.20;;;;;;;;;;7390212;19;20472;-71
2022/11/05 09:06:51;;;;;;;0.30;0.30;;;;;;;;;;7388246;19;20117;-71
2022/11/05 09:09:17;;;;;;;0.30;0.30;;;;;;;;;;7388556;19;20101;-71
2022/11/05 09:11:42;;;;;;;0.30;0.30;;;;;;;;;;7387176;19;20126;-71
2022/11/05 09:14:07;;;;;;;0.20;0.20;;;;;;;;;;7388648;19;20433;-71
2022/11/05 09:16:35;;;;;;;0.30;0.30;;;;;;;;;;7386296;19;20568;-71
2022/11/05 09:19:03;;;;;;;1.17;0.50;;;;;;;;;;7388273;19;20121;-71
2022/11/05 09:21:28;;;;;;;0.20;0.20;;;;;;;;;;7389544;19;20097;-71
2022/11/05 09:23:53;;;;;;;0.30;0.30;;;;;;;;;;7388964;19;20122;-71
2022/11/05 09:26:18;;;;;;;0.20;0.20;;;;;;;;;;7386946;19;20162;-71
2022/11/05 09:28:44;;;;;;;0.20;0.20;;;;;;;;;;7387472;19;20512;-71
2022/11/05 09:31:10;;;;;;;0.20;0.20;;;;;;;;;;7387010;19;20113;-71
2022/11/05 09:33:37;;;;;;;0.30;0.30;;;;;;;;;;7387687;19;20113;-71
2022/11/05 09:36:03;;;;;;;0.43;0.43;;;;;;;;;;7387393;19;20113;-71
2022/11/05 09:38:30;;;;;;;0.20;0.20;;;;;;;;;;7387546;19;20693;-71
2022/11/05 09:41:07;;;;;;;0.30;0.30;;;;;;;;;;7386981;19;20101;-71
2022/11/05 09:43:36;;;;;;;0.20;0.20;;;;;;;;;;7385889;19;20670;-71
2022/11/05 09:46:07;;;;;;;0.30;0.30;;;;;;;;;;7387062;19;20125;-70
2022/11/05 09:48:33;;;;;;;0.30;0.30;;;;;;;;;;7385449;19;20113;-71
2022/11/05 09:50:58;;;;;;;0.37;0.37;;;;;;;;;;7386979;19;20105;-72
2022/11/05 09:53:24;;;;;;;0.30;0.30;;;;;;;;;;7389227;19;20112;-71
2022/11/05 09:55:53;;;;;;;0.23;0.23;;;;;;;;;;7386494;19;20152;-70
2022/11/05 09:58:36;;;;;;;0.30;0.30;;;;;;;;;;7386276;19;20105;-71
2022/11/05 10:01:05;;;;;;;0.30;0.30;;;;;;;;;;7386754;19;20121;-71
2022/11/05 10:03:32;;;;;;;0.30;0.30;;;;;;;;;;7387104;19;20134;-70
2022/11/05 10:06:06;;;;;;;0.30;0.30;;;;;;;;;;7386065;19;20124;-70
2022/11/05 10:08:37;;;;;;;0.60;0.60;;;;;;;;;;7385258;19;20112;-70
2022/11/05 10:11:14;;;;;;;0.30;0.30;;;;;;;;;;7385584;19;20108;-70
2022/11/05 10:13:53;;;;;;;0.27;0.27;;;;;;;;;;7386788;19;20121;-70
2022/11/05 10:16:24;;;;;;;0.20;0.20;;;;;;;;;;7384805;19;20227;-70
2022/11/05 10:18:57;;;;;;;0.30;0.30;;;;;;;;;;7385900;19;20472;-70
2022/11/05 10:21:23;;;;;;;0.30;0.30;;;;;;;;;;7385475;19;20129;-70
2022/11/05 10:23:48;;;;;;;0.30;0.30;;;;;;;;;;7386701;19;20105;-70
2022/11/05 10:26:19;;;;;;;0.30;0.30;;;;;;;;;;7384828;19;20148;-70
2022/11/05 10:28:45;;;;;;;0.20;0.20;;;;;;;;;;7385868;19;20191;-70
2022/11/05 10:31:13;;;;;;;0.30;0.30;;;;;;;;;;7386380;19;20117;-70
2022/11/05 10:33:47;;;;;;;0.30;0.30;;;;;;;;;;7386527;19;20109;-70
2022/11/05 10:36:22;;;;;;;0.20;0.20;;;;;;;;;;7385098;19;20121;-70
2022/11/05 10:38:48;;;;;;;0.23;0.23;;;;;;;;;;7388183;19;20108;-70
2022/11/05 10:41:27;;;;;;;0.20;0.20;;;;;;;;;;7386930;19;20462;-71
2022/11/05 10:44:01;;;;;;;0.50;0.50;;;;;;;;;;7386376;19;20101;-71
2022/11/05 10:46:41;;;;;;;0.20;0.20;;;;;;;;;;7384265;19;20563;-71
2022/11/05 10:49:28;;;;;;;0.73;0.70;;;;;;;;;;7385749;19;20120;-71
2022/11/05 10:51:56;;;;;;;0.30;0.30;;;;;;;;;;7384932;19;20128;-71
2022/11/05 10:54:24;;;;;;;0.30;0.30;;;;;;;;;;7386092;19;20134;-71
2022/11/05 10:56:49;;;;;;;0.20;0.20;;;;;;;;;;7390018;19;20125;-71
2022/11/05 10:59:25;;;;;;;0.20;0.20;;;;;;;;;;7392974;19;20107;-71
2022/11/05 11:02:03;;;;;;;0.30;0.30;;;;;;;;;;7392576;19;20109;-71
2022/11/05 11:04:29;;;;;;;0.20;0.20;;;;;;;;;;7392973;19;20117;-70
2022/11/05 11:06:56;;;;;;;0.20;0.20;;;;;;;;;;7389718;19;20128;-70
2022/11/05 11:09:30;;;;;;;0.20;0.20;;;;;;;;;;7392729;19;20142;-70
2022/11/05 11:11:59;;;;;;;0.20;0.20;;;;;;;;;;7391762;19;20169;-71
2022/11/05 11:14:25;;;;;;;0.20;0.20;;;;;;;;;;7392769;19;20583;-71
2022/11/05 11:16:55;;;;;;;0.30;0.30;;;;;;;;;;7389582;19;20125;-71
2022/11/05 11:19:31;;;;;;;0.30;0.30;;;;;;;;;;7392291;19;20105;-71
2022/11/05 11:22:02;;;;;;;0.57;0.57;;;;;;;;;;7391267;19;20590;-70
2022/11/05 11:24:29;;;;;;;0.57;0.57;;;;;;;;;;7395342;19;20110;-71
2022/11/05 11:27:00;;;;;;;0.20;0.20;;;;;;;;;;7388738;19;20193;-70
2022/11/05 11:29:27;;;;;;;0.30;0.30;;;;;;;;;;7392595;19;20117;-70
2022/11/05 11:31:54;;;;;;;0.20;0.20;;;;;;;;;;7390276;19;20182;-70
2022/11/05 11:34:26;;;;;;;0.20;0.20;;;;;;;;;;7392481;19;20105;-71
2022/11/05 11:36:56;;;;;;;0.30;0.30;;;;;;;;;;7389275;19;20203;-71
2022/11/05 11:39:25;;;;;;;0.20;0.20;;;;;;;;;;7392057;19;20101;-70
2022/11/05 11:41:59;;;;;;;0.23;0.23;;;;;;;;;;7390774;19;20575;-71
2022/11/05 11:44:31;;;;;;;0.20;0.20;;;;;;;;;;7391975;19;20105;-71
2022/11/05 11:47:00;;;;;;;3.80;2.47;;;;;;;;;;7390135;19;20122;-70
2022/11/05 11:49:44;;;;;;;0.30;0.30;;;;;;;;;;7391343;19;20609;-70
2022/11/05 11:52:17;;;;;;;0.30;0.30;;;;;;;;;;7392737;19;20121;-71
2022/11/05 11:54:43;;;;;;;0.30;0.30;;;;;;;;;;7392137;19;20105;-70
2022/11/05 11:57:25;;;;;;;0.30;0.30;;;;;;;;;;7392105;19;20105;-70
2022/11/05 11:59:52;;;;;;;1.30;1.23;;;;;;;;;;7391463;19;20194;-70
2022/11/05 12:02:36;;;;;;;0.30;0.30;;;;;;;;;;7389978;19;20197;-70
2022/11/05 12:05:15;;;;;;;0.27;0.27;;;;;;;;;;7390325;19;20160;-71
2022/11/05 12:07:50;;;;;;;0.30;0.30;;;;;;;;;;7390992;19;20133;-70
2022/11/05 12:10:49;;;;;;;0.20;0.20;;;;;;;;;;7390749;19;20117;-71
2022/11/05 12:13:17;;;;;;;0.40;0.40;;;;;;;;;;7390705;19;20192;-70
2022/11/05 12:15:52;;;;;;;0.32;0.32;;;;;;;;;;7390965;19;20132;-71
2022/11/05 12:18:32;;;;;;;0.30;0.30;;;;;;;;;;7390751;19;20462;-70
2022/11/05 12:21:04;;;;;;;0.30;0.30;;;;;;;;;;7391739;19;20113;-70
2022/11/05 12:23:52;;;;;;;0.68;0.68;;;;;;;;;;7392605;19;20132;-71
2022/11/05 12:26:52;;;;;;;0.30;0.30;;;;;;;;;;7388466;19;20599;-71
2022/11/05 12:29:32;;;;;;;0.28;0.28;;;;;;;;;;7390145;19;20149;-70
2022/11/05 12:32:31;;;;;;;0.43;0.43;;;;;;;;;;7390703;19;20109;-70
2022/11/05 12:35:29;;;;;;;0.20;0.20;;;;;;;;;;7391559;19;20184;-70
2022/11/05 12:38:17;;;;;;;0.20;0.20;;;;;;;;;;7390746;19;20117;-70
2022/11/05 12:41:07;;;;;;;0.30;0.30;;;;;;;;;;7388848;19;20128;-70
2022/11/05 12:43:48;;;;;;;0.20;0.20;;;;;;;;;;7391823;19;20110;-71
2022/11/05 12:46:22;;;;;;;0.30;0.30;;;;;;;;;;7389591;19;20151;-70
2022/11/05 12:49:04;;;;;;;0.30;0.30;;;;;;;;;;7388765;19;20105;-70
2022/11/05 12:52:02;;;;;;;0.30;0.30;;;;;;;;;;7389018;19;20578;-70
2022/11/05 12:54:43;;;;;;;0.82;0.82;;;;;;;;;;7391940;19;20102;-70
2022/11/05 12:57:11;;;;;;;0.30;0.30;;;;;;;;;;7390909;19;20520;-70
2022/11/05 12:59:40;;;;;;;0.30;0.30;;;;;;;;;;7389357;19;20350;-70
2022/11/05 13:02:08;;;;;;;0.30;0.30;;;;;;;;;;7388760;19;20216;-70
2022/11/05 13:04:44;;;;;;;0.20;0.20;;;;;;;;;;7391131;19;20105;-70
2022/11/05 13:07:12;;;;;;;0.30;0.30;;;;;;;;;;7387925;19;20145;-70
2022/11/05 13:09:38;;;;;;;0.30;0.30;;;;;;;;;;7389234;19;20105;-70
2022/11/05 13:12:07;;;;;;;0.30;0.30;;;;;;;;;;7387574;19;20576;-70
2022/11/05 13:14:40;;;;;;;0.22;0.22;;;;;;;;;;7388273;19;20229;-70
2022/11/05 13:17:11;;;;;;;0.30;0.30;;;;;;;;;;7386825;19;20121;-70
2022/11/05 13:19:38;;;;;;;0.23;0.23;;;;;;;;;;7389883;19;20132;-71
2022/11/05 13:22:22;;;;;;;0.30;0.30;;;;;;;;;;7387749;19;20117;-70
2022/11/05 13:24:49;;;;;;;0.70;0.70;;;;;;;;;;7388612;19;20109;-70
2022/11/05 13:27:17;;;;;;;0.20;0.20;;;;;;;;;;7386942;19;20119;-70
2022/11/05 13:29:49;;;;;;;0.27;0.27;;;;;;;;;;7389654;19;20120;-70
2022/11/05 13:32:23;;;;;;;0.30;0.30;;;;;;;;;;7387374;19;20116;-70
2022/11/05 13:34:48;;;;;;;0.40;0.40;;;;;;;;;;7389552;19;20124;-70
2022/11/05 13:40:06;;;;;;;0.30;0.30;;;;;;;;;;7389244;19;20136;-70
2022/11/05 13:42:34;;;;;;;0.30;0.30;;;;;;;;;;7386967;19;20583;-70
2022/11/05 13:45:14;;;;;;;0.30;0.30;;;;;;;;;;7388976;19;20145;-70
2022/11/05 13:48:05;;;;;;;0.20;0.20;;;;;;;;;;7386481;19;20129;-70
2022/11/05 13:51:01;;;;;;;0.30;0.30;;;;;;;;;;7388651;19;20128;-70
2022/11/05 13:53:50;;;;;;;0.33;0.33;;;;;;;;;;7388187;19;20117;-70
2022/11/05 13:56:32;;;;;;;0.30;0.30;;;;;;;;;;7386001;19;20133;-70
2022/11/05 13:59:22;;;;;;;0.30;0.30;;;;;;;;;;7387208;19;20117;-70
2022/11/05 14:01:56;;;;;;;0.30;0.30;;;;;;;;;;7386576;19;20106;-70
2022/11/05 14:04:27;;;;;;;0.23;0.23;;;;;;;;;;7386849;19;20109;-70
2022/11/05 14:06:54;;;;;;;0.60;0.60;;;;;;;;;;7386525;19;20129;-70
2022/11/05 14:09:24;;;;;;;0.53;0.53;;;;;;;;;;7389432;19;20105;-70
2022/11/05 14:11:55;;;;;;;0.30;0.30;;;;;;;;;;7386087;19;20112;-70
2022/11/05 14:14:24;;;;;;;0.40;0.40;;;;;;;;;;7386929;19;20116;-70
2022/11/05 14:16:52;;;;;;;0.30;0.30;;;;;;;;;;7384638;19;20140;-70
2022/11/05 14:19:17;;;;;;;0.33;0.33;;;;;;;;;;7387113;19;20118;-70
2022/11/05 14:21:53;;;;;;;0.33;0.33;;;;;;;;;;7387493;19;20105;-70
2022/11/05 14:24:21;;;;;;;0.40;0.40;;;;;;;;;;7386489;19;20590;-70
2022/11/05 14:26:59;;;;;;;0.30;0.30;;;;;;;;;;7386402;19;20121;-70
2022/11/05 14:29:27;;;;;;;0.63;0.40;;;;;;;;;;7388025;19;20152;-70
2022/11/05 14:31:54;;;;;;;2.93;0.57;;;;;;;;;;7384398;19;20124;-70
2022/11/05 14:34:39;;;;;;;0.30;0.30;;;;;;;;;;7386669;19;20125;-70
2022/11/05 14:37:10;;;;;;;0.30;0.30;;;;;;;;;;7386604;19;20452;-70
2022/11/05 14:39:36;;;;;;;0.30;0.30;;;;;;;;;;7388030;19;20597;-70
2022/11/05 14:42:09;;;;;;;0.30;0.30;;;;;;;;;;7384333;19;20113;-70
2022/11/05 14:44:35;;;;;;;0.63;0.63;;;;;;;;;;7386397;19;20105;-70
2022/11/05 14:47:19;;;;;;;0.30;0.30;;;;;;;;;;7386730;19;20197;-70
2022/11/05 14:49:51;;;;;;;0.20;0.20;;;;;;;;;;7385680;19;20595;-70
2022/11/05 14:52:18;;;;;;;0.20;0.20;;;;;;;;;;7384587;19;20562;-70
2022/11/05 14:54:44;;;;;;;0.27;0.27;;;;;;;;;;7385825;19;20109;-70
2022/11/05 14:57:14;;;;;;;0.40;0.40;;;;;;;;;;7384558;19;20106;-70
2022/11/05 14:59:51;;;;;;;0.30;0.30;;;;;;;;;;7387572;19;20118;-70
2022/11/05 15:02:20;;;;;;;0.30;0.30;;;;;;;;;;7384956;19;20599;-70
2022/11/05 15:04:46;;;;;;;0.30;0.30;;;;;;;;;;7384956;19;20467;-70
2022/11/05 15:07:20;;;;;;;0.30;0.30;;;;;;;;;;7384531;19;20197;-70
2022/11/05 15:09:56;;;;;;;0.30;0.30;;;;;;;;;;7387237;19;20133;-70
2022/11/05 15:12:41;;;;;;;0.30;0.30;;;;;;;;;;7385077;19;20101;-70
2022/11/05 15:15:23;;;;;;;0.30;0.30;;;;;;;;;;7374126;19;20148;-70
2022/11/05 15:17:59;;;;;;;0.30;0.30;;;;;;;;;;7383423;19;20105;-70
2022/11/05 15:20:36;;;;;;;0.30;0.30;;;;;;;;;;7378336;19;20575;-70
2022/11/05 15:23:05;;;;;;;0.30;0.30;;;;;;;;;;7383143;19;20137;-70
2022/11/05 15:26:15;;;;;;;0.20;0.20;;;;;;;;;;7377482;19;20598;-70
2022/11/05 15:28:46;;;;;;;0.30;0.30;;;;;;;;;;7382735;19;20110;-70
2022/11/05 15:31:11;;;;;;;0.27;0.27;;;;;;;;;;7382106;19;20126;-70
2022/11/05 15:33:36;;;;;;;0.30;0.30;;;;;;;;;;7384908;19;20579;-70
2022/11/05 15:36:30;;;;;;;0.30;0.30;;;;;;;;;;7382348;19;20772;-70
2022/11/05 15:38:56;;;;;;;0.20;0.20;;;;;;;;;;7384183;19;20201;-70
2022/11/05 15:41:25;;;;;;;0.30;0.30;;;;;;;;;;7380228;19;20125;-70
2022/11/05 15:43:51;;;;;;;0.30;0.30;;;;;;;;;;7386036;19;20129;-70
2022/11/05 15:46:27;;;;;;;0.20;0.20;;;;;;;;;;7386227;19;20144;-70
2022/11/05 15:48:54;;;;;;;0.30;0.30;;;;;;;;;;7386918;19;20521;-70
2022/11/05 15:51:22;;;;;;;0.30;0.30;;;;;;;;;;7388777;19;20138;-70
2022/11/05 15:53:47;;;;;;;0.30;0.30;;;;;;;;;;7389677;19;20587;-70